sensor_id;sensor_type;location;lat;lon;timestamp;pressure;altitude;pressure_sealevel;temperature;humidity
21395;BME280;10858;42.714;23.180;2023-02-13T00:02:21;96124.94;;;-1.67;76.99
21395;BME280;10858;42.714;23.180;2023-02-13T00:04:47;96126.75;;;-1.74;76.47
21395;BME280;10858;42.714;23.180;2023-02-13T00:07:13;96121.53;;;-1.71;76.39
21395;BME280;10858;42.714;23.180;2023-02-13T00:09:40;96127.22;;;-2.09;77.11
21395;BME280;10858;42.714;23.180;2023-02-13T00:12:07;96127.22;;;-2.09;77.53
21395;BME280;10858;42.714;23.180;2023-02-13T00:14:38;96124.81;;;-2.27;77.63
21395;BME280;10858;42.714;23.180;2023-02-13T00:17:05;96125.72;;;-2.31;77.56
21395;BME280;10858;42.714;23.180;2023-02-13T00:19:32;96130.00;;;-2.27;76.90
21395;BME280;10858;42.714;23.180;2023-02-13T00:21:58;96131.84;;;-2.38;77.54
21395;BME280;10858;42.714;23.180;2023-02-13T00:24:25;96131.03;;;-2.44;77.65
21395;BME280;10858;42.714;23.180;2023-02-13T00:26:51;96132.03;;;-2.56;77.69
21395;BME280;10858;42.714;23.180;2023-02-13T00:29:17;96132.03;;;-2.56;77.76
21395;BME280;10858;42.714;23.180;2023-02-13T00:31:43;96133.72;;;-2.52;77.60
21395;BME280;10858;42.714;23.180;2023-02-13T00:34:10;96130.16;;;-2.39;77.70
21395;BME280;10858;42.714;23.180;2023-02-13T00:36:36;96135.28;;;-2.33;77.47
21395;BME280;10858;42.714;23.180;2023-02-13T00:39:02;96138.16;;;-2.58;78.84
21395;BME280;10858;42.714;23.180;2023-02-13T00:41:28;96130.22;;;-2.45;79.16
21395;BME280;10858;42.714;23.180;2023-02-13T00:43:55;96130.94;;;-2.34;78.49
21395;BME280;10858;42.714;23.180;2023-02-13T00:46:21;96127.59;;;-2.46;78.39
21395;BME280;10858;42.714;23.180;2023-02-13T00:48:47;96133.66;;;-2.43;79.29
21395;BME280;10858;42.714;23.180;2023-02-13T00:51:14;96133.78;;;-2.55;78.93
21395;BME280;10858;42.714;23.180;2023-02-13T00:53:40;96138.00;;;-2.45;79.54
21395;BME280;10858;42.714;23.180;2023-02-13T00:56:06;96140.59;;;-2.43;80.20
21395;BME280;10858;42.714;23.180;2023-02-13T00:58:34;96148.00;;;-2.09;80.17
21395;BME280;10858;42.714;23.180;2023-02-13T01:01:00;96147.03;;;-2.02;79.79
21395;BME280;10858;42.714;23.180;2023-02-13T01:03:26;96149.28;;;-1.73;79.44
21395;BME280;10858;42.714;23.180;2023-02-13T01:05:54;96147.50;;;-1.69;78.41
21395;BME280;10858;42.714;23.180;2023-02-13T01:08:20;96156.22;;;-1.74;77.89
21395;BME280;10858;42.714;23.180;2023-02-13T01:10:47;96147.53;;;-1.71;78.46
21395;BME280;10858;42.714;23.180;2023-02-13T01:13:15;96142.13;;;-1.57;78.64
21395;BME280;10858;42.714;23.180;2023-02-13T01:15:43;96147.16;;;-1.42;78.40
21395;BME280;10858;42.714;23.180;2023-02-13T01:18:13;96151.34;;;-1.32;77.70
21395;BME280;10858;42.714;23.180;2023-02-13T01:20:40;96148.78;;;-1.37;77.16
21395;BME280;10858;42.714;23.180;2023-02-13T01:23:07;96146.31;;;-1.44;77.60
21395;BME280;10858;42.714;23.180;2023-02-13T01:25:33;96155.88;;;-1.48;77.78
21395;BME280;10858;42.714;23.180;2023-02-13T01:27:59;96154.97;;;-1.45;77.19
21395;BME280;10858;42.714;23.180;2023-02-13T01:30:26;96153.22;;;-1.43;77.43
21395;BME280;10858;42.714;23.180;2023-02-13T01:32:52;96145.38;;;-1.42;77.81
21395;BME280;10858;42.714;23.180;2023-02-13T01:35:18;96155.78;;;-1.40;78.11
21395;BME280;10858;42.714;23.180;2023-02-13T01:37:44;96155.84;;;-1.45;77.28
21395;BME280;10858;42.714;23.180;2023-02-13T01:40:12;96157.59;;;-1.45;77.31
21395;BME280;10858;42.714;23.180;2023-02-13T01:42:39;96154.78;;;-1.30;77.68
21395;BME280;10858;42.714;23.180;2023-02-13T01:50:43;96163.50;;;-1.34;77.09
21395;BME280;10858;42.714;23.180;2023-02-13T01:53:25;96160.31;;;-1.56;77.21
21395;BME280;10858;42.714;23.180;2023-02-13T01:56:00;96170.72;;;-1.54;77.17
21395;BME280;10858;42.714;23.180;2023-02-13T01:58:31;96171.94;;;-1.84;78.10
21395;BME280;10858;42.714;23.180;2023-02-13T02:00:59;96171.97;;;-1.86;78.78
21395;BME280;10858;42.714;23.180;2023-02-13T02:03:51;96174.34;;;-1.67;78.39
21395;BME280;10858;42.714;23.180;2023-02-13T02:06:27;96172.44;;;-1.53;78.16
21395;BME280;10858;42.714;23.180;2023-02-13T02:08:56;96164.59;;;-1.52;78.99
21395;BME280;10858;42.714;23.180;2023-02-13T02:11:35;96164.31;;;-1.31;78.49
21395;BME280;10858;42.714;23.180;2023-02-13T02:14:04;96156.50;;;-1.29;78.01
21395;BME280;10858;42.714;23.180;2023-02-13T02:16:31;96161.53;;;-1.19;78.06
21395;BME280;10858;42.714;23.180;2023-02-13T02:19:00;96162.25;;;-1.09;77.50
21395;BME280;10858;42.714;23.180;2023-02-13T02:24:32;96171.84;;;-1.11;77.85
21395;BME280;10858;42.714;23.180;2023-02-13T02:36:02;96161.00;;;-1.40;77.27
21395;BME280;10858;42.714;23.180;2023-02-13T02:39:00;96171.44;;;-1.43;77.10
21395;BME280;10858;42.714;23.180;2023-02-13T02:41:48;96169.63;;;-1.37;77.28
21395;BME280;10858;42.714;23.180;2023-02-13T02:47:08;96173.34;;;-1.54;77.59
21395;BME280;10858;42.714;23.180;2023-02-13T02:53:11;96186.97;;;-1.37;78.44
21395;BME280;10858;42.714;23.180;2023-02-13T02:55:46;96181.75;;;-1.37;78.38
21395;BME280;10858;42.714;23.180;2023-02-13T02:58:25;96181.63;;;-1.27;78.39
21395;BME280;10858;42.714;23.180;2023-02-13T03:01:17;96188.06;;;-0.94;78.30
21395;BME280;10858;42.714;23.180;2023-02-13T03:04:03;96186.38;;;-0.97;78.53
21395;BME280;10858;42.714;23.180;2023-02-13T03:06:59;96176.63;;;-0.84;77.84
21395;BME280;10858;42.714;23.180;2023-02-13T03:09:33;96179.03;;;-0.72;77.61
21395;BME280;10858;42.714;23.180;2023-02-13T03:12:23;96186.13;;;-0.81;78.03
21395;BME280;10858;42.714;23.180;2023-02-13T03:15:08;96181.69;;;-0.75;77.91
21395;BME280;10858;42.714;23.180;2023-02-13T03:17:35;96183.50;;;-0.80;78.14
21395;BME280;10858;42.714;23.180;2023-02-13T03:20:31;96188.56;;;-0.71;77.73
21395;BME280;10858;42.714;23.180;2023-02-13T03:23:37;96186.19;;;-0.86;77.24
21395;BME280;10858;42.714;23.180;2023-02-13T03:29:12;96181.63;;;-0.72;76.87
21395;BME280;10858;42.714;23.180;2023-02-13T03:34:34;96194.28;;;-1.03;77.06
21395;BME280;10858;42.714;23.180;2023-02-13T03:37:34;96199.22;;;-0.86;77.42
21395;BME280;10858;42.714;23.180;2023-02-13T03:40:27;96196.53;;;-0.80;77.41
21395;BME280;10858;42.714;23.180;2023-02-13T03:43:11;96193.63;;;-0.62;77.51
21395;BME280;10858;42.714;23.180;2023-02-13T03:45:43;96186.84;;;-0.72;77.57
21395;BME280;10858;42.714;23.180;2023-02-13T03:48:22;96178.72;;;-0.54;77.49
21395;BME280;10858;42.714;23.180;2023-02-13T03:51:10;96182.75;;;-0.88;78.02
21395;BME280;10858;42.714;23.180;2023-02-13T03:53:41;96175.03;;;-0.94;77.87
21395;BME280;10858;42.714;23.180;2023-02-13T03:56:11;96185.25;;;-1.38;79.26
21395;BME280;10858;42.714;23.180;2023-02-13T03:58:57;96187.66;;;-1.26;78.95
21395;BME280;10858;42.714;23.180;2023-02-13T04:04:42;96179.44;;;-0.98;77.83
21395;BME280;10858;42.714;23.180;2023-02-13T04:07:17;96183.28;;;-1.23;77.05
21395;BME280;10858;42.714;23.180;2023-02-13T04:10:12;96190.44;;;-1.37;76.32
21395;BME280;10858;42.714;23.180;2023-02-13T04:15:46;96202.38;;;-1.89;78.00
21395;BME280;10858;42.714;23.180;2023-02-13T04:18:21;96207.59;;;-1.92;78.50
21395;BME280;10858;42.714;23.180;2023-02-13T04:20:48;96203.22;;;-1.90;78.39
21395;BME280;10858;42.714;23.180;2023-02-13T04:23:15;96196.41;;;-2.00;79.61
21395;BME280;10858;42.714;23.180;2023-02-13T04:25:45;96201.50;;;-1.90;79.33
21395;BME280;10858;42.714;23.180;2023-02-13T04:28:12;96198.03;;;-1.90;79.95
21395;BME280;10858;42.714;23.180;2023-02-13T04:30:38;96193.53;;;-1.75;79.55
21395;BME280;10858;42.714;23.180;2023-02-13T04:33:04;96195.22;;;-1.72;78.94
21395;BME280;10858;42.714;23.180;2023-02-13T04:35:31;96194.25;;;-1.63;79.01
21395;BME280;10858;42.714;23.180;2023-02-13T04:37:57;96196.69;;;-1.51;78.27
21395;BME280;10858;42.714;23.180;2023-02-13T04:40:23;96195.81;;;-1.49;78.26
21395;BME280;10858;42.714;23.180;2023-02-13T04:42:49;96185.66;;;-1.68;78.94
21395;BME280;10858;42.714;23.180;2023-02-13T04:45:16;96192.63;;;-1.74;78.30
21395;BME280;10858;42.714;23.180;2023-02-13T04:47:42;96184.88;;;-1.75;79.32
21395;BME280;10858;42.714;23.180;2023-02-13T04:50:09;96186.25;;;-1.47;78.46
21395;BME280;10858;42.714;23.180;2023-02-13T04:52:35;96188.78;;;-1.42;78.38
21395;BME280;10858;42.714;23.180;2023-02-13T04:55:01;96188.72;;;-1.39;78.08
21395;BME280;10858;42.714;23.180;2023-02-13T04:57:27;96191.38;;;-1.42;77.64
21395;BME280;10858;42.714;23.180;2023-02-13T04:59:53;96193.38;;;-1.62;77.18
21395;BME280;10858;42.714;23.180;2023-02-13T05:02:19;96207.97;;;-1.51;76.37
21395;BME280;10858;42.714;23.180;2023-02-13T05:04:45;96209.97;;;-1.73;76.64
21395;BME280;10858;42.714;23.180;2023-02-13T05:07:12;96212.78;;;-1.92;77.71
21395;BME280;10858;42.714;23.180;2023-02-13T05:09:38;96218.00;;;-1.91;78.03
21395;BME280;10858;42.714;23.180;2023-02-13T05:12:04;96212.81;;;-1.94;78.49
21395;BME280;10858;42.714;23.180;2023-02-13T05:14:30;96205.78;;;-1.83;78.34
21395;BME280;10858;42.714;23.180;2023-02-13T05:16:57;96205.69;;;-1.77;78.54
21395;BME280;10858;42.714;23.180;2023-02-13T05:19:23;96207.31;;;-1.66;78.63
21395;BME280;10858;42.714;23.180;2023-02-13T05:21:49;96211.75;;;-1.76;78.75
21395;BME280;10858;42.714;23.180;2023-02-13T05:24:34;96211.69;;;-1.72;78.45
21395;BME280;10858;42.714;23.180;2023-02-13T05:27:00;96219.34;;;-1.59;77.76
21395;BME280;10858;42.714;23.180;2023-02-13T05:29:26;96214.19;;;-1.64;78.59
21395;BME280;10858;42.714;23.180;2023-02-13T05:31:54;96220.97;;;-1.49;78.18
21395;BME280;10858;42.714;23.180;2023-02-13T05:34:22;96221.84;;;-1.50;78.44
21395;BME280;10858;42.714;23.180;2023-02-13T05:36:49;96223.47;;;-1.43;78.31
21395;BME280;10858;42.714;23.180;2023-02-13T05:39:16;96227.84;;;-1.45;78.16
21395;BME280;10858;42.714;23.180;2023-02-13T05:41:43;96230.44;;;-1.45;77.92
21395;BME280;10858;42.714;23.180;2023-02-13T05:44:10;96234.66;;;-1.35;77.66
21395;BME280;10858;42.714;23.180;2023-02-13T05:46:38;96233.03;;;-1.42;77.79
21395;BME280;10858;42.714;23.180;2023-02-13T05:49:05;96226.13;;;-1.46;76.96
21395;BME280;10858;42.714;23.180;2023-02-13T05:51:31;96235.66;;;-1.45;77.02
21395;BME280;10858;42.714;23.180;2023-02-13T05:53:57;96234.88;;;-1.53;78.21
21395;BME280;10858;42.714;23.180;2023-02-13T05:56:24;96246.09;;;-1.47;78.22
21395;BME280;10858;42.714;23.180;2023-02-13T05:58:56;96236.47;;;-1.40;78.56
21395;BME280;10858;42.714;23.180;2023-02-13T06:01:23;96239.03;;;-1.39;79.11
21395;BME280;10858;42.714;23.180;2023-02-13T06:03:49;96243.09;;;-1.18;78.58
21395;BME280;10858;42.714;23.180;2023-02-13T06:06:16;96245.59;;;-1.12;79.42
21395;BME280;10858;42.714;23.180;2023-02-13T06:08:43;96248.03;;;-1.00;79.02
21395;BME280;10858;42.714;23.180;2023-02-13T06:11:09;96242.56;;;-0.82;79.55
21395;BME280;10858;42.714;23.180;2023-02-13T06:13:36;96249.09;;;-0.52;78.56
21395;BME280;10858;42.714;23.180;2023-02-13T06:16:06;96252.53;;;-0.50;78.96
21395;BME280;10858;42.714;23.180;2023-02-13T06:18:33;96254.75;;;-0.28;79.40
21395;BME280;10858;42.714;23.180;2023-02-13T06:21:00;96244.91;;;-0.11;78.34
21395;BME280;10858;42.714;23.180;2023-02-13T06:23:27;96247.53;;;-0.12;79.35
21395;BME280;10858;42.714;23.180;2023-02-13T06:25:53;96252.50;;;0.02;79.19
21395;BME280;10858;42.714;23.180;2023-02-13T06:28:19;96257.16;;;0.32;79.17
21395;BME280;10858;42.714;23.180;2023-02-13T06:30:46;96256.72;;;0.54;77.92
21395;BME280;10858;42.714;23.180;2023-02-13T06:33:12;96251.72;;;0.85;78.04
21395;BME280;10858;42.714;23.180;2023-02-13T06:35:38;96246.47;;;0.88;77.30
21395;BME280;10858;42.714;23.180;2023-02-13T06:38:05;96249.13;;;0.85;77.12
21395;BME280;10858;42.714;23.180;2023-02-13T06:40:31;96248.81;;;1.00;77.48
21395;BME280;10858;42.714;23.180;2023-02-13T06:42:57;96248.91;;;1.34;76.54
21395;BME280;10858;42.714;23.180;2023-02-13T06:45:23;96256.25;;;1.18;76.40
21395;BME280;10858;42.714;23.180;2023-02-13T06:47:49;96262.78;;;1.37;76.68
21395;BME280;10858;42.714;23.180;2023-02-13T06:50:17;96264.78;;;1.26;75.51
21395;BME280;10858;42.714;23.180;2023-02-13T06:52:50;96263.13;;;1.22;76.36
21395;BME280;10858;42.714;23.180;2023-02-13T06:55:17;96265.34;;;1.39;76.65
21395;BME280;10858;42.714;23.180;2023-02-13T06:57:44;96261.41;;;1.58;75.36
21395;BME280;10858;42.714;23.180;2023-02-13T07:00:12;96257.13;;;1.55;75.59
21395;BME280;10858;42.714;23.180;2023-02-13T07:02:43;96255.44;;;1.88;76.04
21395;BME280;10858;42.714;23.180;2023-02-13T07:05:10;96258.94;;;2.21;75.91
21395;BME280;10858;42.714;23.180;2023-02-13T07:07:38;96258.50;;;2.05;74.54
21395;BME280;10858;42.714;23.180;2023-02-13T07:10:07;96254.28;;;2.00;74.60
21395;BME280;10858;42.714;23.180;2023-02-13T07:12:36;96258.84;;;2.25;74.66
21395;BME280;10858;42.714;23.180;2023-02-13T07:15:06;96246.84;;;2.17;74.39
21395;BME280;10858;42.714;23.180;2023-02-13T07:17:33;96257.47;;;2.11;74.26
21395;BME280;10858;42.714;23.180;2023-02-13T07:19:59;96258.34;;;2.11;74.11
21395;BME280;10858;42.714;23.180;2023-02-13T07:22:25;96261.84;;;2.44;74.17
21395;BME280;10858;42.714;23.180;2023-02-13T07:24:51;96259.53;;;2.64;72.77
21395;BME280;10858;42.714;23.180;2023-02-13T07:27:18;96263.63;;;2.74;72.35
21395;BME280;10858;42.714;23.180;2023-02-13T07:29:44;96271.56;;;3.02;72.43
21395;BME280;10858;42.714;23.180;2023-02-13T07:32:10;96266.19;;;3.06;72.66
21395;BME280;10858;42.714;23.180;2023-02-13T07:34:37;96267.28;;;3.27;72.05
21395;BME280;10858;42.714;23.180;2023-02-13T07:37:06;96266.59;;;3.50;71.62
21395;BME280;10858;42.714;23.180;2023-02-13T07:39:32;96266.91;;;3.68;70.77
21395;BME280;10858;42.714;23.180;2023-02-13T07:41:58;96259.44;;;3.82;70.05
21395;BME280;10858;42.714;23.180;2023-02-13T07:44:25;96258.03;;;3.98;70.24
21395;BME280;10858;42.714;23.180;2023-02-13T07:46:51;96259.59;;;4.30;69.98
21395;BME280;10858;42.714;23.180;2023-02-13T07:49:17;96255.28;;;4.27;69.15
21395;BME280;10858;42.714;23.180;2023-02-13T07:51:43;96260.41;;;4.06;68.76
21395;BME280;10858;42.714;23.180;2023-02-13T07:54:09;96262.28;;;4.28;68.74
21395;BME280;10858;42.714;23.180;2023-02-13T07:56:36;96262.38;;;4.25;68.72
21395;BME280;10858;42.714;23.180;2023-02-13T07:59:02;96258.03;;;3.98;68.77
21395;BME280;10858;42.714;23.180;2023-02-13T08:01:28;96251.59;;;4.07;68.16
21395;BME280;10858;42.714;23.180;2023-02-13T08:03:55;96262.38;;;3.99;68.51
21395;BME280;10858;42.714;23.180;2023-02-13T08:06:21;96264.84;;;4.04;68.20
21395;BME280;10858;42.714;23.180;2023-02-13T08:08:48;96267.22;;;4.11;68.34
21395;BME280;10858;42.714;23.180;2023-02-13T08:11:34;96271.31;;;4.20;67.34
21395;BME280;10858;42.714;23.180;2023-02-13T08:14:20;96255.22;;;4.29;67.65
21395;BME280;10858;42.714;23.180;2023-02-13T08:16:46;96261.41;;;4.28;67.16
21395;BME280;10858;42.714;23.180;2023-02-13T08:19:12;96255.81;;;4.37;67.20
21395;BME280;10858;42.714;23.180;2023-02-13T08:21:39;96262.06;;;4.59;66.70
21395;BME280;10858;42.714;23.180;2023-02-13T08:24:06;96255.53;;;4.71;66.61
21395;BME280;10858;42.714;23.180;2023-02-13T08:26:32;96260.06;;;4.90;65.95
21395;BME280;10858;42.714;23.180;2023-02-13T08:28:59;96253.00;;;5.37;64.92
21395;BME280;10858;42.714;23.180;2023-02-13T08:31:25;96252.22;;;5.35;64.71
21395;BME280;10858;42.714;23.180;2023-02-13T08:33:52;96255.16;;;5.28;65.62
21395;BME280;10858;42.714;23.180;2023-02-13T08:36:18;96260.28;;;5.07;64.17
21395;BME280;10858;42.714;23.180;2023-02-13T08:38:47;96257.53;;;5.57;65.53
21395;BME280;10858;42.714;23.180;2023-02-13T08:41:14;96257.28;;;5.18;64.25
21395;BME280;10858;42.714;23.180;2023-02-13T08:43:42;96256.38;;;4.71;64.89
21395;BME280;10858;42.714;23.180;2023-02-13T08:46:09;96262.91;;;4.84;64.74
21395;BME280;10858;42.714;23.180;2023-02-13T08:48:35;96259.25;;;4.88;65.38
21395;BME280;10858;42.714;23.180;2023-02-13T08:51:05;96252.13;;;4.67;65.18
21395;BME280;10858;42.714;23.180;2023-02-13T08:53:33;96262.03;;;5.08;64.78
21395;BME280;10858;42.714;23.180;2023-02-13T08:55:59;96262.25;;;5.02;63.58
21395;BME280;10858;42.714;23.180;2023-02-13T08:58:25;96264.75;;;4.82;64.30
21395;BME280;10858;42.714;23.180;2023-02-13T09:00:52;96252.56;;;4.55;64.95
21395;BME280;10858;42.714;23.180;2023-02-13T09:03:18;96249.19;;;4.52;64.51
21395;BME280;10858;42.714;23.180;2023-02-13T09:05:44;96254.91;;;4.87;64.91
21395;BME280;10858;42.714;23.180;2023-02-13T09:08:12;96260.22;;;4.86;63.56
21395;BME280;10858;42.714;23.180;2023-02-13T09:10:39;96262.56;;;4.93;63.33
21395;BME280;10858;42.714;23.180;2023-02-13T09:13:06;96259.50;;;5.05;64.05
21395;BME280;10858;42.714;23.180;2023-02-13T09:15:33;96257.78;;;5.72;61.08
21395;BME280;10858;42.714;23.180;2023-02-13T09:17:59;96257.22;;;5.64;61.13
21395;BME280;10858;42.714;23.180;2023-02-13T09:20:25;96257.38;;;5.83;62.50
21395;BME280;10858;42.714;23.180;2023-02-13T09:22:53;96255.81;;;6.62;58.49
21395;BME280;10858;42.714;23.180;2023-02-13T09:25:19;96264.47;;;7.05;57.64
21395;BME280;10858;42.714;23.180;2023-02-13T09:27:46;96265.09;;;7.48;55.72
21395;BME280;10858;42.714;23.180;2023-02-13T09:30:13;96259.31;;;7.40;55.05
21395;BME280;10858;42.714;23.180;2023-02-13T09:32:51;96256.06;;;6.56;57.52
21395;BME280;10858;42.714;23.180;2023-02-13T09:35:18;96255.25;;;5.69;60.29
21395;BME280;10858;42.714;23.180;2023-02-13T09:37:45;96250.34;;;6.05;59.33
21395;BME280;10858;42.714;23.180;2023-02-13T09:40:17;96251.00;;;6.10;58.46
21395;BME280;10858;42.714;23.180;2023-02-13T09:42:47;96247.56;;;6.50;58.45
21395;BME280;10858;42.714;23.180;2023-02-13T09:45:16;96244.50;;;6.99;56.57
21395;BME280;10858;42.714;23.180;2023-02-13T09:47:45;96240.91;;;8.12;54.00
21395;BME280;10858;42.714;23.180;2023-02-13T09:50:42;96244.63;;;8.26;52.48
21395;BME280;10858;42.714;23.180;2023-02-13T09:53:19;96231.34;;;8.09;53.13
21395;BME280;10858;42.714;23.180;2023-02-13T09:55:57;96231.97;;;8.14;51.98
21395;BME280;10858;42.714;23.180;2023-02-13T09:58:41;96230.88;;;8.18;52.76
21395;BME280;10858;42.714;23.180;2023-02-13T10:01:30;96214.28;;;7.62;54.24
21395;BME280;10858;42.714;23.180;2023-02-13T10:06:39;96210.34;;;8.06;54.59
21395;BME280;10858;42.714;23.180;2023-02-13T10:09:32;96205.47;;;7.80;53.14
21395;BME280;10858;42.714;23.180;2023-02-13T10:15:03;96209.03;;;7.25;56.06
21395;BME280;10858;42.714;23.180;2023-02-13T10:17:55;96193.28;;;8.30;52.36
21395;BME280;10858;42.714;23.180;2023-02-13T10:23:34;96191.03;;;8.57;51.65
21395;BME280;10858;42.714;23.180;2023-02-13T10:26:14;96183.63;;;9.29;49.46
21395;BME280;10858;42.714;23.180;2023-02-13T10:28:56;96176.16;;;9.20;49.56
21395;BME280;10858;42.714;23.180;2023-02-13T10:31:44;96166.22;;;8.92;50.79
21395;BME280;10858;42.714;23.180;2023-02-13T10:34:15;96169.25;;;8.69;51.00
21395;BME280;10858;42.714;23.180;2023-02-13T10:36:45;96159.81;;;9.44;48.84
21395;BME280;10858;42.714;23.180;2023-02-13T10:39:22;96157.41;;;10.62;45.66
21395;BME280;10858;42.714;23.180;2023-02-13T10:42:07;96150.22;;;10.78;45.46
21395;BME280;10858;42.714;23.180;2023-02-13T10:52:34;96141.94;;;11.25;44.42
21395;BME280;10858;42.714;23.180;2023-02-13T10:55:22;96132.88;;;12.23;41.73
21395;BME280;10858;42.714;23.180;2023-02-13T11:01:20;96133.03;;;12.07;41.82
21395;BME280;10858;42.714;23.180;2023-02-13T11:04:09;96127.59;;;10.57;45.55
21395;BME280;10858;42.714;23.180;2023-02-13T11:06:41;96126.09;;;10.53;45.43
21395;BME280;10858;42.714;23.180;2023-02-13T11:09:08;96122.59;;;9.77;45.47
21395;BME280;10858;42.714;23.180;2023-02-13T11:11:40;96120.66;;;9.18;47.01
21395;BME280;10858;42.714;23.180;2023-02-13T11:16:55;96105.69;;;9.02;49.43
21395;BME280;10858;42.714;23.180;2023-02-13T11:22:11;96103.63;;;8.76;48.65
21395;BME280;10858;42.714;23.180;2023-02-13T11:24:41;96096.59;;;8.59;49.47
21395;BME280;10858;42.714;23.180;2023-02-13T11:27:10;96087.09;;;8.55;49.11
21395;BME280;10858;42.714;23.180;2023-02-13T11:29:56;96082.38;;;9.24;48.13
21395;BME280;10858;42.714;23.180;2023-02-13T11:32:25;96076.56;;;9.02;48.54
21395;BME280;10858;42.714;23.180;2023-02-13T11:34:52;96066.69;;;8.90;48.45
21395;BME280;10858;42.714;23.180;2023-02-13T11:37:29;96070.34;;;8.72;48.45
21395;BME280;10858;42.714;23.180;2023-02-13T11:39:58;96063.44;;;9.16;47.65
21395;BME280;10858;42.714;23.180;2023-02-13T11:42:29;96055.72;;;8.65;46.91
21395;BME280;10858;42.714;23.180;2023-02-13T11:45:03;96059.19;;;8.49;47.01
21395;BME280;10858;42.714;23.180;2023-02-13T11:47:38;96053.84;;;8.82;47.32
21395;BME280;10858;42.714;23.180;2023-02-13T11:50:20;96047.44;;;9.49;46.00
21395;BME280;10858;42.714;23.180;2023-02-13T11:55:39;96041.31;;;9.32;45.24
21395;BME280;10858;42.714;23.180;2023-02-13T12:00:41;96037.28;;;9.41;44.72
21395;BME280;10858;42.714;23.180;2023-02-13T12:06:12;96023.97;;;9.27;44.87
21395;BME280;10858;42.714;23.180;2023-02-13T12:08:40;96024.19;;;9.38;46.49
21395;BME280;10858;42.714;23.180;2023-02-13T12:11:41;96024.19;;;9.38;45.11
21395;BME280;10858;42.714;23.180;2023-02-13T12:14:13;96012.88;;;9.05;46.43
21395;BME280;10858;42.714;23.180;2023-02-13T12:16:53;96009.72;;;9.29;45.52
21395;BME280;10858;42.714;23.180;2023-02-13T12:19:37;96013.91;;;9.63;45.48
21395;BME280;10858;42.714;23.180;2023-02-13T12:24:56;96006.22;;;10.18;43.62
21395;BME280;10858;42.714;23.180;2023-02-13T12:33:15;96000.50;;;10.38;42.27
21395;BME280;10858;42.714;23.180;2023-02-13T12:36:04;96002.22;;;10.11;42.59
21395;BME280;10858;42.714;23.180;2023-02-13T12:41:21;95985.81;;;11.42;40.37
21395;BME280;10858;42.714;23.180;2023-02-13T12:46:49;95982.13;;;11.96;38.66
21395;BME280;10858;42.714;23.180;2023-02-13T13:06:48;95961.56;;;13.70;35.17
21395;BME280;10858;42.714;23.180;2023-02-13T13:14:35;95951.56;;;14.30;34.45
21395;BME280;10858;42.714;23.180;2023-02-13T13:20:00;95949.16;;;13.93;35.26
21395;BME280;10858;42.714;23.180;2023-02-13T13:22:37;95944.38;;;14.31;34.63
21395;BME280;10858;42.714;23.180;2023-02-13T13:25:20;95934.44;;;14.44;33.61
21395;BME280;10858;42.714;23.180;2023-02-13T13:28:03;95950.34;;;12.94;36.51
21395;BME280;10858;42.714;23.180;2023-02-13T13:30:34;95939.97;;;12.66;37.41
21395;BME280;10858;42.714;23.180;2023-02-13T13:35:32;95945.84;;;13.54;35.36
21395;BME280;10858;42.714;23.180;2023-02-13T13:43:31;95951.59;;;14.75;33.12
21395;BME280;10858;42.714;23.180;2023-02-13T13:51:38;95940.56;;;12.82;37.12
21395;BME280;10858;42.714;23.180;2023-02-13T14:07:54;95930.63;;;12.48;36.88
21395;BME280;10858;42.714;23.180;2023-02-13T14:13:00;95924.06;;;10.16;41.06
21395;BME280;10858;42.714;23.180;2023-02-13T14:31:25;95920.91;;;8.63;45.38
21395;BME280;10858;42.714;23.180;2023-02-13T14:34:05;95916.97;;;8.39;46.21
21395;BME280;10858;42.714;23.180;2023-02-13T14:36:38;95916.63;;;8.29;46.64
21395;BME280;10858;42.714;23.180;2023-02-13T14:39:29;95921.78;;;8.15;46.37
21395;BME280;10858;42.714;23.180;2023-02-13T14:41:59;95920.25;;;8.11;46.24
21395;BME280;10858;42.714;23.180;2023-02-13T14:44:37;95919.84;;;7.86;47.43
21395;BME280;10858;42.714;23.180;2023-02-13T14:47:19;95922.13;;;8.09;46.65
21395;BME280;10858;42.714;23.180;2023-02-13T14:49:49;95916.25;;;7.71;47.25
21395;BME280;10858;42.714;23.180;2023-02-13T14:52:21;95914.09;;;7.78;47.24
21395;BME280;10858;42.714;23.180;2023-02-13T14:57:48;95917.44;;;7.82;47.27
21395;BME280;10858;42.714;23.180;2023-02-13T15:05:51;95919.44;;;7.44;48.55
21395;BME280;10858;42.714;23.180;2023-02-13T15:08:21;95914.47;;;7.38;48.56
21395;BME280;10858;42.714;23.180;2023-02-13T15:10:52;95914.09;;;7.28;48.80
21395;BME280;10858;42.714;23.180;2023-02-13T15:13:30;95913.63;;;7.20;49.12
21395;BME280;10858;42.714;23.180;2023-02-13T15:16:06;95919.31;;;7.13;49.85
21395;BME280;10858;42.714;23.180;2023-02-13T15:18:45;95919.59;;;7.07;49.97
21395;BME280;10858;42.714;23.180;2023-02-13T15:21:16;95916.03;;;6.91;50.54
21395;BME280;10858;42.714;23.180;2023-02-13T15:23:44;95922.50;;;6.83;50.79
21395;BME280;10858;42.714;23.180;2023-02-13T15:26:21;95918.09;;;6.67;51.04
21395;BME280;10858;42.714;23.180;2023-02-13T15:29:02;95926.72;;;6.52;51.41
21395;BME280;10858;42.714;23.180;2023-02-13T15:31:31;95923.31;;;6.50;51.55
21395;BME280;10858;42.714;23.180;2023-02-13T15:33:58;95923.19;;;6.34;51.71
21395;BME280;10858;42.714;23.180;2023-02-13T15:36:32;95923.06;;;6.19;52.30
21395;BME280;10858;42.714;23.180;2023-02-13T15:39:04;95918.72;;;5.99;52.96
21395;BME280;10858;42.714;23.180;2023-02-13T15:41:37;95921.28;;;5.80;53.89
21395;BME280;10858;42.714;23.180;2023-02-13T15:44:06;95931.50;;;5.68;53.93
21395;BME280;10858;42.714;23.180;2023-02-13T15:46:34;95933.81;;;5.55;54.38
21395;BME280;10858;42.714;23.180;2023-02-13T15:49:06;95939.09;;;5.35;55.00
21395;BME280;10858;42.714;23.180;2023-02-13T15:51:33;95942.91;;;5.08;55.64
21395;BME280;10858;42.714;23.180;2023-02-13T15:54:02;95937.78;;;4.85;56.33
21395;BME280;10858;42.714;23.180;2023-02-13T15:56:29;95940.16;;;4.69;56.42
21395;BME280;10858;42.714;23.180;2023-02-13T15:58:57;95939.59;;;4.40;57.60
21395;BME280;10858;42.714;23.180;2023-02-13T16:01:24;95948.59;;;4.11;58.74